Time,TemperatureF,DewpointF,PressureIn,WindDirection,WindDirectionDegrees,WindSpeedMPH,WindSpeedGustMPH,Humidity,HourlyPrecipIn,Conditions,Clouds,dailyrainin,SolarRadiationWatts/m^2,SoftwareType,DateUTC
2013-06-10 00:02:00,71.0,70.0,-100.00,SE,130,3.0,6.0,97,0.00,,,2.88,0.000000,,2013-06-10 05:02:00,
2013-06-10 00:12:00,71.0,70.0,-100.00,SE,130,3.0,6.0,97,0.00,,,2.88,0.000000,,2013-06-10 05:12:00,
2013-06-10 00:32:00,72.0,71.0,-100.00,SSE,150,4.0,10.0,97,0.00,,,2.88,0.000000,,2013-06-10 05:32:00,
2013-06-10 00:42:00,72.0,71.0,-100.00,SSE,150,4.0,10.0,97,0.00,,,2.88,0.000000,,2013-06-10 05:42:00,
2013-06-10 00:52:00,72.0,71.0,-100.00,SSE,150,4.0,10.0,97,0.00,,,2.88,0.000000,,2013-06-10 05:52:00,
2013-06-10 01:02:00,72.0,71.0,-100.00,SSE,150,4.0,10.0,97,0.00,,,2.88,0.000000,,2013-06-10 06:02:00,
2013-06-10 01:12:00,72.0,71.0,-100.00,SSE,150,4.0,10.0,97,0.00,,,2.88,0.000000,,2013-06-10 06:12:00,
2013-06-10 01:32:00,72.0,71.0,-100.00,SSE,148,3.0,7.0,97,0.00,,,2.87,0.000000,,2013-06-10 06:32:00,
2013-06-10 01:42:00,72.0,71.0,-100.00,SSE,148,3.0,7.0,97,0.00,,,2.87,0.000000,,2013-06-10 06:42:00,
2013-06-10 01:53:00,72.0,71.0,-100.00,SSE,148,3.0,7.0,97,0.00,,,2.87,0.000000,,2013-06-10 06:53:00,
2013-06-10 02:02:00,72.0,71.0,-100.00,SSE,148,3.0,7.0,97,0.00,,,2.87,0.000000,,2013-06-10 07:02:00,
2013-06-10 02:12:00,72.0,71.0,-100.00,SSE,148,3.0,7.0,97,0.00,,,2.87,0.000000,,2013-06-10 07:12:00,
2013-06-10 02:32:00,73.0,72.0,-100.00,SSE,167,4.0,9.0,97,0.00,,,2.77,0.000000,,2013-06-10 07:32:00,
2013-06-10 02:42:00,73.0,72.0,-100.00,SSE,167,4.0,9.0,97,0.00,,,2.77,0.000000,,2013-06-10 07:42:00,
2013-06-10 02:52:00,73.0,72.0,-100.00,SSE,167,4.0,9.0,97,0.00,,,2.77,0.000000,,2013-06-10 07:52:00,
2013-06-10 03:02:00,73.0,72.0,-100.00,SSE,167,4.0,9.0,97,0.00,,,2.77,0.000000,,2013-06-10 08:02:00,
2013-06-10 03:12:00,73.0,72.0,-100.00,SSE,167,4.0,9.0,97,0.00,,,2.77,0.000000,,2013-06-10 08:12:00,
2013-06-10 03:32:00,73.0,72.0,-100.00,South,179,3.0,8.0,97,0.00,,,2.77,0.000000,,2013-06-10 08:32:00,
2013-06-10 03:42:00,73.0,72.0,-100.00,South,179,3.0,8.0,97,0.00,,,2.77,0.000000,,2013-06-10 08:42:00,
2013-06-10 03:52:00,73.0,72.0,-100.00,South,179,3.0,8.0,97,0.00,,,2.77,0.000000,,2013-06-10 08:52:00,
2013-06-10 04:02:00,73.0,72.0,-100.00,South,179,3.0,8.0,97,0.00,,,2.77,0.000000,,2013-06-10 09:02:00,
2013-06-10 04:12:00,73.0,72.0,-100.00,South,179,3.0,8.0,97,0.00,,,2.77,0.000000,,2013-06-10 09:12:00,
2013-06-10 04:43:00,73.0,72.0,-100.00,South,172,3.0,6.0,97,0.01,,,2.09,0.000000,,2013-06-10 09:43:00,
2013-06-10 04:53:00,73.0,72.0,-100.00,South,172,3.0,6.0,97,0.01,,,2.09,0.000000,,2013-06-10 09:53:00,
2013-06-10 05:03:00,73.0,72.0,-100.00,South,172,3.0,6.0,97,0.01,,,2.09,0.000000,,2013-06-10 10:03:00,
2013-06-10 05:12:00,73.0,72.0,-100.00,South,172,3.0,6.0,97,0.01,,,2.09,0.000000,,2013-06-10 10:12:00,
2013-06-10 05:33:00,73.0,72.0,-100.00,South,190,3.0,9.0,97,0.05,,,1.41,0.000000,,2013-06-10 10:33:00,
2013-06-10 05:42:00,73.0,72.0,-100.00,South,190,3.0,9.0,97,0.05,,,1.41,0.000000,,2013-06-10 10:42:00,
2013-06-10 05:52:00,73.0,72.0,-100.00,South,190,3.0,9.0,97,0.05,,,1.41,0.000000,,2013-06-10 10:52:00,
2013-06-10 06:03:00,73.0,72.0,-100.00,South,190,3.0,9.0,97,0.05,,,1.41,0.000000,,2013-06-10 11:03:00,
2013-06-10 06:12:00,73.0,72.0,-100.00,South,190,3.0,9.0,97,0.05,,,1.41,0.000000,,2013-06-10 11:12:00,
2013-06-10 08:42:00,71.0,70.0,-100.00,South,190,4.0,8.0,97,-99.99,,,0.93,40.000000,,2013-06-10 13:42:00,
2013-06-10 08:52:00,71.0,70.0,-100.00,South,190,4.0,8.0,97,-99.99,,,0.93,40.000000,,2013-06-10 13:52:00,
2013-06-10 09:02:00,71.0,70.0,-100.00,South,190,4.0,8.0,97,-99.99,,,0.93,40.000000,,2013-06-10 14:02:00,
2013-06-10 09:12:00,71.0,70.0,-100.00,South,190,4.0,8.0,97,-99.99,,,0.93,40.000000,,2013-06-10 14:12:00,
2013-06-10 09:42:00,71.0,70.0,-100.00,South,187,4.0,9.0,97,0.01,,,0.94,54.000000,,2013-06-10 14:42:00,
2013-06-10 09:52:00,71.0,70.0,-100.00,South,187,4.0,9.0,97,0.01,,,0.94,54.000000,,2013-06-10 14:52:00,
2013-06-10 10:02:00,71.0,70.0,-100.00,South,187,4.0,9.0,97,0.01,,,0.94,54.000000,,2013-06-10 15:02:00,
2013-06-10 10:12:00,71.0,70.0,-100.00,South,187,4.0,9.0,97,0.01,,,0.94,54.000000,,2013-06-10 15:12:00,
2013-06-10 10:33:00,71.0,70.0,-100.00,SW,217,3.0,7.0,96,0.01,,,0.94,80.000000,,2013-06-10 15:33:00,
2013-06-10 10:43:00,71.0,70.0,-100.00,SW,217,3.0,7.0,96,0.01,,,0.94,80.000000,,2013-06-10 15:43:00,
2013-06-10 10:53:00,71.0,70.0,-100.00,SW,217,3.0,7.0,96,0.01,,,0.94,80.000000,,2013-06-10 15:53:00,
2013-06-10 11:03:00,71.0,70.0,-100.00,SW,217,3.0,7.0,96,0.01,,,0.94,80.000000,,2013-06-10 16:03:00,
2013-06-10 11:12:00,71.0,70.0,-100.00,SW,217,3.0,7.0,96,0.01,,,0.94,80.000000,,2013-06-10 16:12:00,
2013-06-10 11:33:00,71.0,69.0,-100.00,WSW,252,3.0,10.0,95,0.06,,,0.89,40.000000,,2013-06-10 16:33:00,
2013-06-10 11:43:00,71.0,69.0,-100.00,WSW,252,3.0,10.0,95,0.06,,,0.89,40.000000,,2013-06-10 16:43:00,
2013-06-10 11:53:00,71.0,69.0,-100.00,WSW,252,3.0,10.0,95,0.06,,,0.89,40.000000,,2013-06-10 16:53:00,
2013-06-10 12:03:00,71.0,69.0,-100.00,WSW,252,3.0,10.0,95,0.06,,,0.89,40.000000,,2013-06-10 17:03:00,
2013-06-10 12:14:00,71.0,69.0,-100.00,WSW,252,3.0,10.0,95,0.06,,,0.89,40.000000,,2013-06-10 17:14:00,
2013-06-10 12:38:00,71.0,70.0,-100.00,SW,228,2.0,6.0,96,0.11,,,0.88,79.000000,,2013-06-10 17:38:00,
2013-06-10 12:48:00,71.0,70.0,-100.00,SW,228,2.0,6.0,96,0.11,,,0.88,79.000000,,2013-06-10 17:48:00,
2013-06-10 12:58:00,71.0,70.0,-100.00,SW,228,2.0,6.0,96,0.11,,,0.88,79.000000,,2013-06-10 17:58:00,
2013-06-10 13:07:00,71.0,70.0,-100.00,SW,228,2.0,6.0,96,0.11,,,0.88,79.000000,,2013-06-10 18:07:00,
2013-06-10 13:14:00,71.0,70.0,-100.00,SW,228,2.0,6.0,96,0.11,,,0.88,79.000000,,2013-06-10 18:14:00,
2013-06-10 13:35:00,73.0,72.0,-100.00,SSE,160,2.0,5.0,96,0.05,,,0.75,153.000000,,2013-06-10 18:35:00,
2013-06-10 13:48:00,73.0,72.0,-100.00,SSE,160,2.0,5.0,96,0.05,,,0.75,153.000000,,2013-06-10 18:48:00,
2013-06-10 13:55:00,73.0,72.0,-100.00,SSE,160,2.0,5.0,96,0.05,,,0.75,153.000000,,2013-06-10 18:55:00,
2013-06-10 14:03:00,73.0,72.0,-100.00,SSE,160,2.0,5.0,96,0.05,,,0.75,153.000000,,2013-06-10 19:03:00,
2013-06-10 14:13:00,73.0,72.0,-100.00,SSE,160,2.0,5.0,96,0.05,,,0.75,153.000000,,2013-06-10 19:13:00,
2013-06-10 14:43:00,78.0,74.0,-100.00,South,173,2.0,6.0,88,0.00,,,0.59,414.000000,,2013-06-10 19:43:00,
2013-06-10 14:53:00,78.0,74.0,-100.00,South,173,2.0,6.0,88,0.00,,,0.59,414.000000,,2013-06-10 19:53:00,
2013-06-10 15:03:00,78.0,74.0,-100.00,South,173,2.0,6.0,88,0.00,,,0.59,414.000000,,2013-06-10 20:03:00,
2013-06-10 15:12:00,78.0,74.0,-100.00,South,173,2.0,6.0,88,0.00,,,0.59,414.000000,,2013-06-10 20:12:00,
2013-06-10 15:32:00,83.0,75.0,-100.00,South,172,4.0,8.0,78,0.00,,,0.56,628.000000,,2013-06-10 20:32:00,
2013-06-10 15:43:00,83.0,75.0,-100.00,South,172,4.0,8.0,78,0.00,,,0.56,628.000000,,2013-06-10 20:43:00,
2013-06-10 15:53:00,83.0,75.0,-100.00,South,172,4.0,8.0,78,0.00,,,0.56,628.000000,,2013-06-10 20:53:00,
2013-06-10 16:02:00,83.0,75.0,-100.00,South,172,4.0,8.0,78,0.00,,,0.56,628.000000,,2013-06-10 21:02:00,
2013-06-10 16:12:00,83.0,75.0,-100.00,South,172,4.0,8.0,78,0.00,,,0.56,628.000000,,2013-06-10 21:12:00,
2013-06-10 16:34:00,84.0,74.0,-100.00,South,180,5.0,10.0,73,0.00,,,0.55,692.000000,,2013-06-10 21:34:00,
2013-06-10 16:43:00,84.0,74.0,-100.00,South,180,5.0,10.0,73,0.00,,,0.55,692.000000,,2013-06-10 21:43:00,
2013-06-10 16:53:00,84.0,74.0,-100.00,South,180,5.0,10.0,73,0.00,,,0.55,692.000000,,2013-06-10 21:53:00,
2013-06-10 17:03:00,84.0,74.0,-100.00,South,180,5.0,10.0,73,0.00,,,0.55,692.000000,,2013-06-10 22:03:00,
2013-06-10 17:13:00,84.0,74.0,-100.00,South,180,5.0,10.0,73,0.00,,,0.55,692.000000,,2013-06-10 22:13:00,
2013-06-10 17:42:00,81.0,73.0,-100.00,SSW,196,4.0,9.0,77,0.00,,,0.55,252.000000,,2013-06-10 22:42:00,
2013-06-10 17:52:00,81.0,73.0,-100.00,SSW,196,4.0,9.0,77,0.00,,,0.55,252.000000,,2013-06-10 22:52:00,
2013-06-10 18:02:00,81.0,73.0,-100.00,SSW,196,4.0,9.0,77,0.00,,,0.55,252.000000,,2013-06-10 23:02:00,
2013-06-10 18:12:00,81.0,73.0,-100.00,SSW,196,4.0,9.0,77,0.00,,,0.55,252.000000,,2013-06-10 23:12:00,
2013-06-10 18:32:00,81.0,74.0,-100.00,SSW,194,4.0,8.0,80,0.00,,,0.53,193.000000,,2013-06-10 23:32:00,
2013-06-10 18:42:00,81.0,74.0,-100.00,SSW,194,4.0,8.0,80,0.00,,,0.53,193.000000,,2013-06-10 23:42:00,
2013-06-10 18:52:00,81.0,74.0,-100.00,SSW,194,4.0,8.0,80,0.00,,,0.53,193.000000,,2013-06-10 23:52:00,
2013-06-10 19:02:00,81.0,74.0,-100.00,SSW,194,4.0,8.0,80,0.00,,,0.53,193.000000,,2013-06-11 00:02:00,
2013-06-10 19:12:00,81.0,74.0,-100.00,SSW,194,4.0,8.0,80,0.00,,,0.53,193.000000,,2013-06-11 00:12:00,
2013-06-10 19:43:00,78.0,71.0,-100.00,SSW,206,4.0,10.0,80,0.00,,,0.52,97.000000,,2013-06-11 00:43:00,
2013-06-10 19:52:00,78.0,71.0,-100.00,SSW,206,4.0,10.0,80,0.00,,,0.52,97.000000,,2013-06-11 00:52:00,
2013-06-10 20:02:00,78.0,71.0,-100.00,SSW,206,4.0,10.0,80,0.00,,,0.52,97.000000,,2013-06-11 01:02:00,
2013-06-10 20:12:00,78.0,71.0,-100.00,SSW,206,4.0,10.0,80,0.00,,,0.52,97.000000,,2013-06-11 01:12:00,
2013-06-10 20:33:00,75.0,71.0,-100.00,South,190,2.0,6.0,88,0.00,,,0.52,20.000000,,2013-06-11 01:33:00,
2013-06-10 20:42:00,75.0,71.0,-100.00,South,190,2.0,6.0,88,0.00,,,0.52,20.000000,,2013-06-11 01:42:00,
2013-06-10 20:53:00,75.0,71.0,-100.00,South,190,2.0,6.0,88,0.00,,,0.52,20.000000,,2013-06-11 01:53:00,
2013-06-10 21:02:00,75.0,71.0,-100.00,South,190,2.0,6.0,88,0.00,,,0.52,20.000000,,2013-06-11 02:02:00,
2013-06-10 21:12:00,75.0,71.0,-100.00,South,190,2.0,6.0,88,0.00,,,0.52,20.000000,,2013-06-11 02:12:00,
2013-06-10 21:32:00,73.0,71.0,-100.00,South,188,3.0,5.0,92,0.00,,,0.52,0.000000,,2013-06-11 02:32:00,
2013-06-10 21:43:00,73.0,71.0,-100.00,South,188,3.0,5.0,92,0.00,,,0.52,0.000000,,2013-06-11 02:43:00,
2013-06-10 21:52:00,73.0,71.0,-100.00,South,188,3.0,5.0,92,0.00,,,0.52,0.000000,,2013-06-11 02:52:00,
2013-06-10 22:02:00,73.0,71.0,-100.00,South,188,3.0,5.0,92,0.00,,,0.52,0.000000,,2013-06-11 03:02:00,
2013-06-10 22:13:00,73.0,71.0,-100.00,South,188,3.0,5.0,92,0.00,,,0.52,0.000000,,2013-06-11 03:13:00,
2013-06-10 22:33:00,72.0,70.0,-100.00,SSW,194,2.0,5.0,93,0.00,,,0.52,0.000000,,2013-06-11 03:33:00,
2013-06-10 22:43:00,72.0,70.0,-100.00,SSW,194,2.0,5.0,93,0.00,,,0.52,0.000000,,2013-06-11 03:43:00,
2013-06-10 22:53:00,72.0,70.0,-100.00,SSW,194,2.0,5.0,93,0.00,,,0.52,0.000000,,2013-06-11 03:53:00,
2013-06-10 23:03:00,72.0,70.0,-100.00,SSW,194,2.0,5.0,93,0.00,,,0.52,0.000000,,2013-06-11 04:03:00,
2013-06-10 23:12:00,72.0,70.0,-100.00,SSW,194,2.0,5.0,93,0.00,,,0.52,0.000000,,2013-06-11 04:12:00,
2013-06-10 23:33:00,71.0,69.0,-100.00,SSW,196,2.0,5.0,95,0.00,,,0.52,0.000000,,2013-06-11 04:33:00,
2013-06-10 23:43:00,71.0,69.0,-100.00,SSW,196,2.0,5.0,95,0.00,,,0.52,0.000000,,2013-06-11 04:43:00,
2013-06-10 23:53:00,71.0,69.0,-100.00,SSW,196,2.0,5.0,95,0.00,,,0.52,0.000000,,2013-06-11 04:53:00,